createdAt,value
2016-12-02T00:00:41.790Z,0
2016-12-02T00:01:41.860Z,0
2016-12-02T00:02:41.850Z,0
2016-12-02T00:03:42.485Z,0
2016-12-02T00:04:41.916Z,0
2016-12-02T00:05:42.234Z,0
2016-12-02T00:06:41.968Z,0
2016-12-02T00:07:42.893Z,0
2016-12-02T00:08:42.014Z,0
2016-12-02T00:09:42.045Z,0
2016-12-02T00:10:42.387Z,0
2016-12-02T00:11:41.822Z,0
2016-12-02T00:12:42.116Z,0
2016-12-02T00:13:43.050Z,0
2016-12-02T00:14:42.177Z,0
2016-12-02T00:15:42.211Z,0
2016-12-02T00:16:42.249Z,0
2016-12-02T00:17:42.575Z,0
2016-12-02T00:18:42.895Z,0
2016-12-02T00:19:42.615Z,0
2016-12-02T00:20:42.054Z,0
2016-12-02T00:21:42.377Z,0
2016-12-02T00:22:42.713Z,0
2016-12-02T00:23:42.433Z,0
2016-12-02T00:24:42.786Z,0
2016-12-02T00:25:42.495Z,0
2016-12-02T00:26:42.501Z,0
2016-12-02T00:27:42.546Z,0
2016-12-02T00:28:42.873Z,0
2016-12-02T00:29:42.596Z,0
2016-12-02T00:30:42.925Z,0
2016-12-02T00:31:42.655Z,0
2016-12-02T00:32:42.995Z,0
2016-12-02T00:33:43.042Z,0
2016-12-02T00:34:43.337Z,0
2016-12-02T00:35:42.754Z,0
2016-12-02T00:36:42.481Z,0
2016-12-02T00:37:42.812Z,0
2016-12-02T00:38:43.157Z,0
2016-12-02T00:39:43.193Z,0
2016-12-02T00:40:42.922Z,0
2016-12-02T00:41:42.915Z,0
2016-12-02T00:42:43.544Z,0
2016-12-02T00:43:43.016Z,0
2016-12-02T00:44:43.617Z,0
2016-12-02T00:45:43.038Z,0
2016-12-02T00:46:43.697Z,0
2016-12-02T00:47:43.100Z,0
2016-12-02T00:48:43.108Z,0
2016-12-02T00:49:43.744Z,0
2016-12-02T00:50:43.161Z,0
2016-12-02T00:51:43.507Z,0
2016-12-02T00:52:43.527Z,0
2016-12-02T00:53:43.559Z,0
2016-12-02T00:54:43.277Z,0
2016-12-02T00:55:43.305Z,0
2016-12-02T00:56:43.946Z,0
2016-12-02T00:57:43.664Z,0
2016-12-02T00:58:43.691Z,0
2016-12-02T00:59:44.021Z,0
2016-12-02T01:00:43.746Z,0
2016-12-02T01:01:44.073Z,0
2016-12-02T01:02:43.488Z,0
2016-12-02T01:03:43.824Z,0
2016-12-02T01:04:43.237Z,0
2016-12-02T01:05:43.562Z,0
2016-12-02T01:06:44.209Z,0
2016-12-02T01:07:44.261Z,0
2016-12-02T01:08:43.950Z,0
2016-12-02T01:09:43.983Z,0
2016-12-02T01:10:44.022Z,0
2016-12-02T01:11:44.036Z,0
2016-12-02T01:12:44.069Z,0
2016-12-02T01:13:43.814Z,0
2016-12-02T01:14:43.815Z,0
2016-12-02T01:15:43.846Z,0
2016-12-02T01:16:44.476Z,0
2016-12-02T01:17:44.207Z,0
2016-12-02T01:18:44.229Z,0
2016-12-02T01:19:43.667Z,0
2016-12-02T01:20:44.280Z,0
2016-12-02T01:21:44.922Z,0
2016-12-02T01:22:44.643Z,0
2016-12-02T01:23:44.064Z,0
2016-12-02T01:24:44.394Z,0
2016-12-02T01:25:44.105Z,0
2016-12-02T01:26:44.749Z,0
2016-12-02T01:27:44.769Z,0
2016-12-02T01:28:44.508Z,0
2016-12-02T01:29:44.837Z,0
2016-12-02T01:30:44.255Z,0
2016-12-02T01:31:44.887Z,0
2016-12-02T01:32:44.919Z,0
2016-12-02T01:33:44.036Z,0
2016-12-02T01:34:44.368Z,0
2016-12-02T01:35:44.081Z,0
2016-12-02T01:36:44.739Z,0
2016-12-02T01:37:44.475Z,0
2016-12-02T01:38:44.468Z,0
2016-12-02T01:39:44.801Z,0
2016-12-02T01:40:44.537Z,0
2016-12-02T01:41:45.158Z,0
2016-12-02T01:42:44.576Z,0
2016-12-02T01:43:44.896Z,0
2016-12-02T01:44:44.934Z,0
2016-12-02T01:45:45.272Z,0
2016-12-02T01:46:45.302Z,0
2016-12-02T01:47:45.330Z,0
2016-12-02T01:48:45.038Z,0
2016-12-02T01:49:44.775Z,0
2016-12-02T01:50:44.792Z,0
2016-12-02T01:51:44.836Z,0
2016-12-02T01:52:45.458Z,0
2016-12-02T01:53:45.794Z,0
2016-12-02T01:54:45.515Z,0
2016-12-02T01:55:45.232Z,0
2016-12-02T01:56:44.948Z,0
2016-12-02T01:57:45.604Z,0
2016-12-02T01:58:45.618Z,0
2016-12-02T01:59:45.654Z,0
2016-12-02T02:00:45.689Z,0
2016-12-02T02:01:45.102Z,0
2016-12-02T02:02:45.735Z,0
2016-12-02T02:03:45.741Z,0
2016-12-02T02:04:44.867Z,0
2016-12-02T02:05:45.498Z,0
2016-12-02T02:06:45.527Z,0
2016-12-02T02:07:45.256Z,0
2016-12-02T02:08:46.196Z,0
2016-12-02T02:09:45.922Z,0
2016-12-02T02:10:46.240Z,0
2016-12-02T02:11:45.366Z,0
2016-12-02T02:12:45.687Z,0
2016-12-02T02:13:46.829Z,0
2016-12-02T02:14:45.437Z,0
2016-12-02T02:15:46.086Z,0
2016-12-02T02:16:45.486Z,0
2016-12-02T02:17:45.819Z,0
2016-12-02T02:18:45.859Z,0
2016-12-02T02:19:45.577Z,0
2016-12-02T02:20:45.893Z,0
2016-12-02T02:21:45.627Z,0
2016-12-02T02:22:45.955Z,0
2016-12-02T02:23:45.679Z,0
2016-12-02T02:24:46.303Z,0
2016-12-02T02:25:46.040Z,0
2016-12-02T02:26:46.381Z,0
2016-12-02T02:27:46.094Z,0
2016-12-02T02:28:46.427Z,0
2016-12-02T02:29:46.155Z,0
2016-12-02T02:30:46.171Z,0
2016-12-02T02:31:46.200Z,0
2016-12-02T02:32:45.625Z,0
2016-12-02T02:33:46.558Z,0
2016-12-02T02:34:46.590Z,0
2016-12-02T02:35:46.320Z,0
2016-12-02T02:36:46.341Z,0
2016-12-02T02:37:46.057Z,0
2016-12-02T02:38:46.386Z,0
2016-12-02T02:39:46.715Z,0
2016-12-02T02:40:46.175Z,0
2016-12-02T02:41:46.463Z,0
2016-12-02T02:42:46.808Z,0
2016-12-02T02:43:46.233Z,0
2016-12-02T02:44:46.870Z,0
2016-12-02T02:45:46.878Z,0
2016-12-02T02:46:46.614Z,0
2016-12-02T02:47:46.635Z,0
2016-12-02T02:48:46.648Z,0
2016-12-02T02:49:46.689Z,0
2016-12-02T02:50:47.017Z,0
2016-12-02T02:51:47.346Z,0
2016-12-02T02:52:47.081Z,0
2016-12-02T02:53:46.796Z,0
2016-12-02T02:54:46.512Z,0
2016-12-02T02:55:46.853Z,0
2016-12-02T02:56:46.866Z,0
2016-12-02T02:57:47.205Z,0
2016-12-02T02:58:46.630Z,0
2016-12-02T02:59:46.659Z,0
2016-12-02T03:00:47.284Z,0
2016-12-02T03:01:46.708Z,0
2016-12-02T03:02:46.720Z,0
2016-12-02T03:03:47.061Z,0
2016-12-02T03:04:46.788Z,0
2016-12-02T03:05:46.511Z,0
2016-12-02T03:06:47.143Z,0
2016-12-02T03:07:47.156Z,0
2016-12-02T03:08:46.892Z,0
2016-12-02T03:09:47.225Z,0
2016-12-02T03:10:47.546Z,0
2016-12-02T03:11:47.279Z,0
2016-12-02T03:12:47.620Z,0
2016-12-02T03:13:47.320Z,0
2016-12-02T03:14:47.655Z,0
2016-12-02T03:15:48.003Z,0
2016-12-02T03:16:47.090Z,0
2016-12-02T03:17:47.135Z,0
2016-12-02T03:18:46.865Z,0
2016-12-02T03:19:47.500Z,0
2016-12-02T03:20:47.517Z,0
2016-12-02T03:21:47.537Z,0
2016-12-02T03:22:47.574Z,0
2016-12-02T03:23:47.587Z,0
2016-12-02T03:24:47.931Z,0
2016-12-02T03:25:47.340Z,0
2016-12-02T03:26:47.676Z,0
2016-12-02T03:27:47.705Z,0
2016-12-02T03:28:48.034Z,0
2016-12-02T03:29:47.433Z,0
2016-12-02T03:30:47.180Z,0
2016-12-02T03:31:47.807Z,0
2016-12-02T03:32:47.833Z,0
2016-12-02T03:33:47.862Z,0
2016-12-02T03:34:48.235Z,0
2016-12-02T03:35:47.911Z,0
2016-12-02T03:36:48.248Z,0
2016-12-02T03:37:47.954Z,0
2016-12-02T03:38:48.005Z,0
2016-12-02T03:39:48.342Z,0
2016-12-02T03:40:48.363Z,0
2016-12-02T03:41:48.079Z,0
2016-12-02T03:42:48.101Z,0
2016-12-02T03:43:48.125Z,0
2016-12-02T03:44:47.861Z,0
2016-12-02T03:45:48.477Z,0
2016-12-02T03:46:48.238Z,0
2016-12-02T03:47:48.236Z,0
2016-12-02T03:48:48.261Z,0
2016-12-02T03:49:48.274Z,0
2016-12-02T03:50:47.708Z,0
2016-12-02T03:51:48.333Z,0
2016-12-02T03:52:48.987Z,0
2016-12-02T03:53:48.391Z,0
2016-12-02T03:54:49.031Z,0
2016-12-02T03:55:48.451Z,0
2016-12-02T03:56:47.864Z,0
2016-12-02T03:57:48.218Z,0
2016-12-02T03:58:48.833Z,0
2016-12-02T03:59:49.167Z,0
2016-12-02T04:00:47.992Z,0
2016-12-02T04:01:49.216Z,0
2016-12-02T04:02:48.324Z,0
2016-12-02T04:03:48.957Z,0
2016-12-02T04:04:48.694Z,0
2016-12-02T04:05:48.711Z,0
2016-12-02T04:06:48.732Z,0
2016-12-02T04:07:48.777Z,0
2016-12-02T04:08:49.089Z,0
2016-12-02T04:09:48.515Z,0
2016-12-02T04:10:48.542Z,0
2016-12-02T04:11:48.883Z,0
2016-12-02T04:12:49.197Z,0
2016-12-02T04:13:49.229Z,0
2016-12-02T04:14:48.992Z,0
2016-12-02T04:15:49.278Z,0
2016-12-02T04:16:49.307Z,0
2016-12-02T04:17:49.038Z,0
2016-12-02T04:18:49.351Z,0
2016-12-02T04:19:49.389Z,0
2016-12-02T04:20:48.813Z,0
2016-12-02T04:21:49.142Z,0
2016-12-02T04:22:49.175Z,0
2016-12-02T04:23:49.495Z,0
2016-12-02T04:24:49.211Z,0
2016-12-02T04:25:49.565Z,0
2016-12-02T04:26:48.669Z,0
2016-12-02T04:27:49.002Z,0
2016-12-02T04:28:49.644Z,0
2016-12-02T04:29:49.373Z,0
2016-12-02T04:30:49.380Z,0
2016-12-02T04:31:49.425Z,0
2016-12-02T04:32:48.825Z,0
2016-12-02T04:33:49.762Z,0
2016-12-02T04:34:49.474Z,0
2016-12-02T04:35:49.825Z,0
2016-12-02T04:36:50.145Z,0
2016-12-02T04:37:50.157Z,0
2016-12-02T04:38:49.906Z,0
2016-12-02T04:39:49.926Z,0
2016-12-02T04:40:49.343Z,0
2016-12-02T04:41:50.287Z,0
2016-12-02T04:42:49.404Z,0
2016-12-02T04:43:49.421Z,0
2016-12-02T04:44:49.437Z,0
2016-12-02T04:45:50.101Z,0
2016-12-02T04:46:49.802Z,0
2016-12-02T04:47:49.833Z,0
2016-12-02T04:48:49.557Z,0
2016-12-02T04:49:50.204Z,0
2016-12-02T04:50:49.916Z,0
2016-12-02T04:51:49.931Z,0
2016-12-02T04:52:49.659Z,0
2016-12-02T04:53:49.684Z,0
2016-12-02T04:54:50.632Z,0
2016-12-02T04:55:50.357Z,0
2016-12-02T04:56:50.067Z,0
2016-12-02T04:57:50.102Z,0
2016-12-02T04:58:50.118Z,0
2016-12-02T04:59:49.845Z,0
2016-12-02T05:00:50.484Z,0
2016-12-02T05:01:50.509Z,0
2016-12-02T05:02:50.224Z,0
2016-12-02T05:03:50.246Z,0
2016-12-02T05:04:49.979Z,0
2016-12-02T05:05:49.992Z,0
2016-12-02T05:06:50.636Z,0
2016-12-02T05:07:50.677Z,0
2016-12-02T05:08:51.026Z,0
2016-12-02T05:09:50.423Z,0
2016-12-02T05:10:50.755Z,0
2016-12-02T05:11:50.162Z,0
2016-12-02T05:12:50.492Z,0
2016-12-02T05:13:50.219Z,0
2016-12-02T05:14:50.241Z,0
2016-12-02T05:15:50.582Z,0
2016-12-02T05:16:50.599Z,0
2016-12-02T05:17:50.631Z,0
2016-12-02T05:18:50.352Z,0
2016-12-02T05:19:50.077Z,0
2016-12-02T05:20:50.714Z,0
2016-12-02T05:21:51.038Z,0
2016-12-02T05:22:51.072Z,0
2016-12-02T05:23:50.796Z,0
2016-12-02T05:24:51.419Z,0
2016-12-02T05:25:50.234Z,0
2016-12-02T05:26:50.882Z,0
2016-12-02T05:27:50.634Z,0
2016-12-02T05:28:51.224Z,0
2016-12-02T05:29:50.940Z,0
2016-12-02T05:30:50.981Z,0
2016-12-02T05:31:51.009Z,0
2016-12-02T05:32:51.026Z,0
2016-12-02T05:33:50.747Z,0
2016-12-02T05:34:50.783Z,0
2016-12-02T05:35:51.416Z,0
2016-12-02T05:36:51.143Z,0
2016-12-02T05:37:51.465Z,0
2016-12-02T05:38:51.174Z,0
2016-12-02T05:39:51.231Z,0
2016-12-02T05:40:51.247Z,0
2016-12-02T05:41:51.269Z,0
2016-12-02T05:42:51.292Z,0
2016-12-02T05:43:51.625Z,0
2016-12-02T05:44:50.738Z,0
2016-12-02T05:45:51.683Z,0
2016-12-02T05:46:51.107Z,0
2016-12-02T05:47:51.424Z,0
2016-12-02T05:48:52.070Z,0
2016-12-02T05:49:51.178Z,0
2016-12-02T05:50:52.137Z,0
2016-12-02T05:51:51.840Z,0
2016-12-02T05:52:51.555Z,0
2016-12-02T05:53:51.280Z,0
2016-12-02T05:54:51.617Z,0
2016-12-02T05:55:51.654Z,0
2016-12-02T05:56:52.278Z,0
2016-12-02T05:57:51.399Z,0
2016-12-02T05:58:51.720Z,0
2016-12-02T05:59:51.448Z,0
2016-12-02T06:00:51.773Z,0
2016-12-02T06:01:51.496Z,0
2016-12-02T06:02:51.530Z,0
2016-12-02T06:03:51.874Z,0
2016-12-02T06:04:52.179Z,0
2016-12-02T06:05:52.206Z,0
2016-12-02T06:06:51.325Z,0
2016-12-02T06:07:51.657Z,0
2016-12-02T06:08:51.998Z,0
2016-12-02T06:09:52.310Z,0
2016-12-02T06:10:52.343Z,0
2016-12-02T06:11:52.384Z,0
2016-12-02T06:12:52.096Z,0
2016-12-02T06:13:52.113Z,0
2016-12-02T06:14:51.853Z,0
2016-12-02T06:15:52.462Z,0
2016-12-02T06:16:51.902Z,0
2016-12-02T06:17:52.239Z,0
2016-12-02T06:18:52.570Z,0
2016-12-02T06:19:52.272Z,0
2016-12-02T06:20:52.305Z,0
2016-12-02T06:21:52.628Z,0
2016-12-02T06:22:52.351Z,0
2016-12-02T06:23:52.391Z,0
2016-12-02T06:24:51.811Z,0
2016-12-02T06:25:52.745Z,0
2016-12-02T06:26:52.486Z,0
2016-12-02T06:27:52.494Z,0
2016-12-02T06:28:52.206Z,0
2016-12-02T06:29:52.235Z,0
2016-12-02T06:30:52.877Z,0
2016-12-02T06:31:52.599Z,0
2016-12-02T06:32:52.334Z,0
2016-12-02T06:33:52.966Z,0
2016-12-02T06:34:52.692Z,0
2016-12-02T06:35:52.988Z,0
2016-12-02T06:36:52.445Z,0
2016-12-02T06:37:52.757Z,0
2016-12-02T06:38:52.503Z,0
2016-12-02T06:39:52.509Z,0
2016-12-02T06:40:53.140Z,0
2016-12-02T06:41:52.877Z,0
2016-12-02T06:42:52.893Z,0
2016-12-02T06:43:52.629Z,0
2016-12-02T06:44:52.651Z,0
2016-12-02T06:45:52.676Z,0
2016-12-02T06:46:52.388Z,0
2016-12-02T06:47:52.725Z,0
2016-12-02T06:48:53.066Z,0
2016-12-02T06:49:52.486Z,0
2016-12-02T06:50:52.800Z,0
2016-12-02T06:51:53.148Z,0
2016-12-02T06:52:53.177Z,0
2016-12-02T06:53:52.584Z,0
2016-12-02T06:54:52.926Z,0
2016-12-02T06:55:53.550Z,0
2016-12-02T06:56:53.581Z,0
2016-12-02T06:57:53.004Z,0
2016-12-02T06:58:52.725Z,0
2016-12-02T06:59:53.393Z,0
2016-12-02T07:00:53.078Z,0
2016-12-02T07:01:53.405Z,0
2016-12-02T07:02:53.439Z,0
2016-12-02T07:03:53.796Z,0
2016-12-02T07:04:53.505Z,0
2016-12-02T07:05:54.137Z,0
2016-12-02T07:06:52.930Z,0
2016-12-02T07:07:53.296Z,0
2016-12-02T07:08:52.988Z,0
2016-12-02T07:09:53.629Z,0
2016-12-02T07:10:53.353Z,0
2016-12-02T07:11:53.366Z,0
2016-12-02T07:12:54.291Z,0
2016-12-02T07:13:53.725Z,0
2016-12-02T07:14:53.456Z,0
2016-12-02T07:15:53.481Z,0
2016-12-02T07:16:53.514Z,0
2016-12-02T07:17:54.139Z,0
2016-12-02T07:18:53.875Z,0
2016-12-02T07:19:53.884Z,0
2016-12-02T07:20:53.300Z,0
2016-12-02T07:21:53.654Z,0
2016-12-02T07:22:53.705Z,0
2016-12-02T07:23:53.703Z,0
2016-12-02T07:24:54.036Z,0
2016-12-02T07:25:53.457Z,0
2016-12-02T07:26:54.382Z,0
2016-12-02T07:27:53.789Z,0
2016-12-02T07:28:53.830Z,0
2016-12-02T07:29:54.540Z,0
2016-12-02T07:30:54.193Z,0
2016-12-02T07:31:54.525Z,0
2016-12-02T07:32:54.554Z,0
2016-12-02T07:33:54.575Z,0
2016-12-02T07:34:53.994Z,0
2016-12-02T07:35:54.026Z,0
2016-12-02T07:36:54.673Z,0
2016-12-02T07:37:54.078Z,0
2016-12-02T07:38:54.406Z,0
2016-12-02T07:39:54.132Z,0
2016-12-02T07:40:54.472Z,0
2016-12-02T07:41:55.109Z,0
2016-12-02T07:42:54.542Z,0
2016-12-02T07:43:54.526Z,0
2016-12-02T07:44:54.587Z,0
2016-12-02T07:45:54.613Z,0
2016-12-02T07:46:54.628Z,0
2016-12-02T07:47:54.954Z,0
2016-12-02T07:48:54.406Z,0
2016-12-02T07:49:54.402Z,0
2016-12-02T07:50:54.122Z,0
2016-12-02T07:51:54.460Z,0
2016-12-02T07:52:54.177Z,0
2016-12-02T07:53:54.829Z,0
2016-12-02T07:54:54.837Z,0
2016-12-02T07:55:54.858Z,0
2016-12-02T07:56:54.891Z,0
2016-12-02T07:57:54.914Z,0
2016-12-02T07:58:54.644Z,0
2016-12-02T07:59:54.664Z,0
2016-12-02T08:00:55.321Z,0
2016-12-02T08:01:55.025Z,0
2016-12-02T08:02:55.071Z,0
2016-12-02T08:03:55.083Z,0
2016-12-02T08:04:55.443Z,0
2016-12-02T08:05:55.136Z,0
2016-12-02T08:06:55.464Z,0
2016-12-02T08:07:55.487Z,0
2016-12-02T08:08:55.221Z,0
2016-12-02T08:09:55.265Z,0
2016-12-02T08:10:55.267Z,0
2016-12-02T08:11:55.312Z,0
2016-12-02T08:12:55.320Z,0
2016-12-02T08:13:55.341Z,0
2016-12-02T08:14:55.371Z,0
2016-12-02T08:15:55.702Z,5
2016-12-02T08:16:55.115Z,0
2016-12-02T08:17:55.751Z,0
2016-12-02T08:18:55.476Z,0
2016-12-02T08:19:55.528Z,5
2016-12-02T08:20:55.546Z,0
2016-12-02T08:21:55.874Z,5
2016-12-02T08:22:55.891Z,5
2016-12-02T08:23:55.299Z,5
2016-12-02T08:24:55.638Z,5
2016-12-02T08:25:55.664Z,5
2016-12-02T08:26:55.993Z,5
2016-12-02T08:27:55.467Z,5
2016-12-02T08:28:55.451Z,5
2016-12-02T08:29:56.395Z,5
2016-12-02T08:30:56.427Z,5
2016-12-02T08:31:55.824Z,5
2016-12-02T08:32:55.553Z,5
2016-12-02T08:33:55.596Z,5
2016-12-02T08:34:56.222Z,0
2016-12-02T08:35:55.947Z,5
2016-12-02T08:36:56.304Z,5
2016-12-02T08:37:55.683Z,5
2016-12-02T08:38:56.029Z,5
2016-12-02T08:39:55.743Z,5
2016-12-02T08:40:56.364Z,5
2016-12-02T08:41:55.795Z,5
2016-12-02T08:42:55.835Z,5
2016-12-02T08:43:55.852Z,5
2016-12-02T08:44:55.580Z,5
2016-12-02T08:45:56.240Z,5
2016-12-02T08:46:55.922Z,5
2016-12-02T08:47:55.967Z,5
2016-12-02T08:48:56.285Z,5
2016-12-02T08:49:56.020Z,5
2016-12-02T08:50:56.650Z,5
2016-12-02T08:51:56.069Z,5
2016-12-02T08:52:55.774Z,5
2016-12-02T08:53:56.422Z,5
2016-12-02T08:54:56.158Z,5
2016-12-02T08:55:56.780Z,5
2016-12-02T08:56:56.511Z,5
2016-12-02T08:57:56.232Z,5
2016-12-02T08:58:56.267Z,5
2016-12-02T08:59:56.570Z,5
2016-12-02T09:00:56.917Z,5
2016-12-02T09:01:56.056Z,5
2016-12-02T09:02:56.052Z,5
2016-12-02T09:03:56.701Z,5
2016-12-02T09:04:56.726Z,5
2016-12-02T09:05:56.435Z,5
2016-12-02T09:06:56.484Z,5
2016-12-02T09:07:56.798Z,5
2016-12-02T09:08:56.263Z,5
2016-12-02T09:09:57.499Z,10
2016-12-02T09:10:56.897Z,10
2016-12-02T09:11:57.220Z,10
2016-12-02T09:12:56.636Z,5
2016-12-02T09:13:56.667Z,5
2016-12-02T09:14:57.328Z,5
2016-12-02T09:15:56.713Z,5
2016-12-02T09:16:56.735Z,5
2016-12-02T09:17:57.375Z,5
2016-12-02T09:18:57.090Z,5
2016-12-02T09:19:56.808Z,5
2016-12-02T09:20:56.844Z,5
2016-12-02T09:21:57.481Z,5
2016-12-02T09:22:56.589Z,5
2016-12-02T09:23:57.235Z,5
2016-12-02T09:24:56.980Z,5
2016-12-02T09:25:57.283Z,10
2016-12-02T09:26:57.299Z,10
2016-12-02T09:27:57.040Z,10
2016-12-02T09:28:56.758Z,10
2016-12-02T09:29:56.795Z,10
2016-12-02T09:30:58.036Z,10
2016-12-02T09:31:57.140Z,10
2016-12-02T09:32:57.774Z,10
2016-12-02T09:33:57.485Z,10
2016-12-02T09:34:57.522Z,10
2016-12-02T09:35:57.859Z,10
2016-12-02T09:36:57.579Z,10
2016-12-02T09:37:57.294Z,10
2016-12-02T09:38:57.927Z,10
2016-12-02T09:39:57.358Z,10
2016-12-02T09:40:57.384Z,10
2016-12-02T09:41:57.424Z,15
2016-12-02T09:42:57.748Z,15
2016-12-02T09:43:58.082Z,15
2016-12-02T09:44:57.185Z,10
2016-12-02T09:45:58.123Z,10
2016-12-02T09:46:57.843Z,10
2016-12-02T09:47:57.884Z,10
2016-12-02T09:48:57.593Z,10
2016-12-02T09:49:57.937Z,10
2016-12-02T09:50:57.967Z,10
2016-12-02T09:51:57.995Z,10
2016-12-02T09:52:57.700Z,10
2016-12-02T09:53:58.336Z,10
2016-12-02T09:54:58.137Z,10
2016-12-02T09:55:57.794Z,10
2016-12-02T09:56:58.422Z,10
2016-12-02T09:57:58.148Z,10
2016-12-02T09:58:57.556Z,15
2016-12-02T09:59:57.594Z,15
2016-12-02T10:00:58.225Z,20
2016-12-02T10:01:58.554Z,20
2016-12-02T10:02:57.975Z,20
2016-12-02T10:03:58.308Z,20
2016-12-02T10:04:58.328Z,20
2016-12-02T10:05:58.089Z,20
2016-12-02T10:06:58.385Z,20
2016-12-02T10:07:58.408Z,15
2016-12-02T10:08:58.127Z,15
2016-12-02T10:09:58.469Z,10
2016-12-02T10:10:58.793Z,10
2016-12-02T10:11:58.525Z,10
2016-12-02T10:12:58.845Z,5
2016-12-02T10:13:58.569Z,10
2016-12-02T10:14:58.911Z,10
2016-12-02T10:15:58.957Z,10
2016-12-02T10:16:58.340Z,10
2016-12-02T10:17:58.386Z,10
2016-12-02T10:18:58.705Z,10
2016-12-02T10:19:58.733Z,10
2016-12-02T10:20:58.462Z,10
2016-12-02T10:21:58.776Z,10
2016-12-02T10:22:58.506Z,10
2016-12-02T10:23:59.149Z,10
2016-12-02T10:24:59.159Z,10
2016-12-02T10:25:58.903Z,15
2016-12-02T10:26:58.316Z,20
2016-12-02T10:27:58.645Z,20
2016-12-02T10:28:59.266Z,15
2016-12-02T10:29:59.303Z,10
2016-12-02T10:30:59.029Z,10
2016-12-02T10:31:59.367Z,10
2016-12-02T10:32:59.705Z,10
2016-12-02T10:33:59.105Z,10
2016-12-02T10:34:59.136Z,10
2016-12-02T10:35:59.150Z,10
2016-12-02T10:36:58.599Z,5
2016-12-02T10:37:58.921Z,5
2016-12-02T10:38:58.953Z,5
2016-12-02T10:39:58.982Z,5
2016-12-02T10:40:59.598Z,5
2016-12-02T10:41:59.063Z,10
2016-12-02T10:42:59.052Z,10
2016-12-02T10:43:59.382Z,10
2016-12-02T10:44:59.404Z,10
2016-12-02T10:45:58.835Z,10
2016-12-02T10:46:59.459Z,10
2016-12-02T10:47:59.799Z,10
2016-12-02T10:48:58.903Z,10
2016-12-02T10:49:59.537Z,10
2016-12-02T10:50:59.455Z,10
2016-12-02T10:51:59.301Z,15
2016-12-02T10:52:59.327Z,15
2016-12-02T10:53:59.035Z,15
2016-12-02T10:54:59.654Z,10
2016-12-02T10:55:59.701Z,10
2016-12-02T10:56:59.126Z,10
2016-12-02T10:57:59.746Z,10
2016-12-02T10:58:59.468Z,10
2016-12-02T10:59:59.188Z,10
2016-12-02T11:00:59.836Z,5
2016-12-02T11:01:59.866Z,5
2016-12-02T11:03:00.523Z,10
2016-12-02T11:04:00.479Z,10
2016-12-02T11:05:00.259Z,10
2016-12-02T11:05:59.664Z,10
2016-12-02T11:06:59.680Z,10
2016-12-02T11:08:00.637Z,10
2016-12-02T11:09:00.048Z,10
2016-12-02T11:10:00.075Z,10
2016-12-02T11:11:00.413Z,10
2016-12-02T11:11:59.524Z,10
2016-12-02T11:13:00.155Z,10
2016-12-02T11:13:59.901Z,10
2016-12-02T11:15:00.203Z,10
2016-12-02T11:15:59.947Z,15
2016-12-02T11:16:59.960Z,15
2016-12-02T11:18:00.292Z,15
2016-12-02T11:19:00.318Z,15
2016-12-02T11:20:00.043Z,15
2016-12-02T11:20:59.751Z,15
2016-12-02T11:22:01.011Z,15
2016-12-02T11:23:00.520Z,10
2016-12-02T11:24:00.149Z,10
2016-12-02T11:25:00.186Z,15
2016-12-02T11:26:00.919Z,15
2016-12-02T11:27:00.535Z,15
2016-12-02T11:28:00.854Z,15
2016-12-02T11:29:00.277Z,15
2016-12-02T11:30:00.605Z,20
2016-12-02T11:31:00.634Z,15
2016-12-02T11:32:01.003Z,15
2016-12-02T11:33:01.004Z,15
2016-12-02T11:34:01.004Z,20
2016-12-02T11:35:01.349Z,15
2016-12-02T11:36:01.379Z,15
2016-12-02T11:37:01.101Z,15
2016-12-02T11:38:00.531Z,15
2016-12-02T11:39:01.181Z,15
2016-12-02T11:40:00.893Z,15
2016-12-02T11:41:00.585Z,15
2016-12-02T11:42:01.526Z,15
2016-12-02T11:43:01.261Z,15
2016-12-02T11:44:00.989Z,15
2016-12-02T11:45:01.018Z,15
2016-12-02T11:46:01.365Z,15
2016-12-02T11:47:01.080Z,15
2016-12-02T11:48:01.386Z,15
2016-12-02T11:49:01.411Z,15
2016-12-02T11:50:01.452Z,15
2016-12-02T11:51:01.185Z,15
2016-12-02T11:52:00.905Z,15
2016-12-02T11:53:01.238Z,15
2016-12-02T11:54:01.854Z,15
2016-12-02T11:55:01.879Z,20
2016-12-02T11:56:01.924Z,25
2016-12-02T11:57:01.337Z,25
2016-12-02T11:58:01.357Z,30
2016-12-02T11:59:01.423Z,30
2016-12-02T12:00:02.016Z,25
2016-12-02T12:01:02.047Z,30
2016-12-02T12:02:01.772Z,30
2016-12-02T12:03:01.808Z,25
2016-12-02T12:04:01.842Z,20
2016-12-02T12:05:01.550Z,20
2016-12-02T12:06:01.275Z,20
2016-12-02T12:07:01.897Z,25
2016-12-02T12:08:01.933Z,30
2016-12-02T12:09:01.674Z,30
2016-12-02T12:10:01.692Z,25
2016-12-02T12:11:01.719Z,20
2016-12-02T12:12:01.748Z,20
2016-12-02T12:13:02.068Z,30
2016-12-02T12:14:01.776Z,35
2016-12-02T12:15:02.122Z,40
2016-12-02T12:16:01.863Z,30
2016-12-02T12:17:02.191Z,25
2016-12-02T12:18:01.903Z,25
2016-12-02T12:19:01.932Z,25
2016-12-02T12:20:01.945Z,25
2016-12-02T12:21:02.598Z,25
2016-12-02T12:22:02.342Z,25
2016-12-02T12:23:01.741Z,25
2016-12-02T12:24:02.367Z,30
2016-12-02T12:25:02.101Z,30
2016-12-02T12:26:02.415Z,30
2016-12-02T12:27:02.750Z,30
2016-12-02T12:28:02.791Z,30
2016-12-02T12:29:02.510Z,35
2016-12-02T12:30:02.542Z,35
2016-12-02T12:31:02.573Z,30
2016-12-02T12:32:02.887Z,25
2016-12-02T12:33:02.303Z,25
2016-12-02T12:34:02.031Z,30
2016-12-02T12:35:02.370Z,30
2016-12-02T12:36:02.093Z,25
2016-12-02T12:37:02.122Z,20
2016-12-02T12:38:02.750Z,20
2016-12-02T12:39:03.087Z,20
2016-12-02T12:40:02.792Z,20
2016-12-02T12:41:02.820Z,20
2016-12-02T12:42:02.846Z,20
2016-12-02T12:43:02.270Z,15
2016-12-02T12:44:02.898Z,15
2016-12-02T12:45:02.631Z,15
2016-12-02T12:46:02.352Z,20
2016-12-02T12:47:02.716Z,25
2016-12-02T12:48:03.036Z,35
2016-12-02T12:49:02.759Z,45
2016-12-02T12:50:03.066Z,45
2016-12-02T12:51:02.812Z,40
2016-12-02T12:52:02.212Z,35
2016-12-02T12:53:03.153Z,35
2016-12-02T12:54:02.857Z,35
2016-12-02T12:55:03.226Z,35
2016-12-02T12:56:02.931Z,30
2016-12-02T12:57:03.276Z,30
2016-12-02T12:58:02.997Z,30
2016-12-02T12:59:02.709Z,30
2016-12-02T13:00:03.338Z,30
2016-12-02T13:01:03.366Z,25
2016-12-02T13:02:03.407Z,25
2016-12-02T13:03:02.836Z,25
2016-12-02T13:04:03.165Z,20
2016-12-02T13:05:03.778Z,25
2016-12-02T13:06:03.514Z,20
2016-12-02T13:07:03.518Z,20
2016-12-02T13:08:03.571Z,25
2016-12-02T13:09:03.020Z,25
2016-12-02T13:10:03.319Z,25
2016-12-02T13:11:03.357Z,20
2016-12-02T13:12:03.082Z,20
2016-12-02T13:13:03.699Z,20
2016-12-02T13:14:03.108Z,20
2016-12-02T13:15:04.053Z,20
2016-12-02T13:16:03.477Z,15
2016-12-02T13:17:03.830Z,20
2016-12-02T13:18:03.541Z,15
2016-12-02T13:19:03.877Z,20
2016-12-02T13:20:03.292Z,20
2016-12-02T13:21:03.921Z,25
2016-12-02T13:22:04.253Z,25
2016-12-02T13:23:03.670Z,20
2016-12-02T13:24:04.323Z,20
2016-12-02T13:25:04.044Z,20
2016-12-02T13:26:03.456Z,20
2016-12-02T13:27:03.778Z,15
2016-12-02T13:28:04.416Z,15
2016-12-02T13:29:04.151Z,15
2016-12-02T13:30:03.585Z,15
2016-12-02T13:31:04.252Z,20
2016-12-02T13:32:04.558Z,20
2016-12-02T13:33:03.958Z,15
2016-12-02T13:34:04.286Z,15
2016-12-02T13:35:04.282Z,15
2016-12-02T13:36:04.036Z,20
2016-12-02T13:37:04.060Z,20
2016-12-02T13:38:04.100Z,20
2016-12-02T13:39:04.424Z,25
2016-12-02T13:40:04.427Z,25
2016-12-02T13:41:04.787Z,20
2016-12-02T13:42:04.188Z,20
2016-12-02T13:43:04.820Z,20
2016-12-02T13:44:03.937Z,20
2016-12-02T13:45:04.598Z,20
2016-12-02T13:46:04.294Z,20
2016-12-02T13:47:04.632Z,20
2016-12-02T13:48:04.060Z,20
2016-12-02T13:49:04.688Z,20
2016-12-02T13:50:04.412Z,15
2016-12-02T13:51:04.730Z,15
2016-12-02T13:52:04.778Z,15
2016-12-02T13:53:04.202Z,20
2016-12-02T13:54:04.829Z,15
2016-12-02T13:55:03.957Z,15
2016-12-02T13:56:04.288Z,15
2016-12-02T13:57:04.907Z,10
2016-12-02T13:58:04.627Z,15
2016-12-02T13:59:04.973Z,15
2016-12-02T14:00:05.000Z,10
2016-12-02T14:01:04.417Z,10
2016-12-02T14:02:04.752Z,10
2016-12-02T14:03:04.795Z,10
2016-12-02T14:04:05.103Z,10
2016-12-02T14:05:05.124Z,10
2016-12-02T14:06:05.157Z,10
2016-12-02T14:07:04.573Z,5
2016-12-02T14:08:05.534Z,5
2016-12-02T14:09:04.947Z,10
2016-12-02T14:10:04.968Z,10
2016-12-02T14:11:05.357Z,10
2016-12-02T14:12:05.655Z,10
2016-12-02T14:13:05.353Z,10
2016-12-02T14:14:05.374Z,10
2016-12-02T14:15:05.719Z,10
2016-12-02T14:16:05.124Z,10
2016-12-02T14:17:04.552Z,10
2016-12-02T14:18:04.880Z,10
2016-12-02T14:19:13.593Z,5
2016-12-02T14:20:05.233Z,5
2016-12-02T14:21:04.655Z,5
2016-12-02T14:22:04.675Z,5
2016-12-02T14:23:05.629Z,10
2016-12-02T14:24:05.649Z,10
2016-12-02T14:25:05.997Z,10
2016-12-02T14:26:05.453Z,10
2016-12-02T14:27:05.747Z,10
2016-12-02T14:28:05.156Z,10
2016-12-02T14:29:05.480Z,10
2016-12-02T14:30:05.515Z,10
2016-12-02T14:31:05.542Z,10
2016-12-02T14:32:05.571Z,10
2016-12-02T14:33:05.313Z,5
2016-12-02T14:34:05.644Z,5
2016-12-02T14:35:05.655Z,5
2016-12-02T14:36:05.673Z,5
2016-12-02T14:37:05.996Z,5